Time;durP1;ratioP1;P1;durP2;ratioP2;P2;SDS_P1;SDS_P2;PMS_P1;PMS_P2;Temp;Humidity;BMP_temperature;BMP_pressure;BME280_temperature;BME280_humidity;BME280_pressure;Samples;Min_cycle;Max_cycle;Signal;HPM_P1;HPM_P2
2022/04/03 00:00:36;;;;;;;2.00;1.40;;;0.20;99.90;;;;;;5012858;28;20064;-78
2022/04/03 00:03:04;;;;;;;3.90;1.20;;;1.40;99.90;;;;;;5014703;28;20184;-81
2022/04/03 00:05:33;;;;;;;2.15;1.10;;;0.10;99.90;;;;;;5014727;28;20437;-79
2022/04/03 00:07:59;;;;;;;2.42;1.40;;;2.10;99.90;;;;;;4998739;28;20599;-78
2022/04/03 00:10:25;;;;;;;3.10;1.10;;;0.10;99.90;;;;;;5019036;28;20042;-78
2022/04/03 00:12:51;;;;;;;1.77;1.05;;;0.00;99.90;;;;;;5015360;28;20120;-80
2022/04/03 00:15:17;;;;;;;1.45;1.13;;;0.70;99.90;;;;;;5014016;28;20474;-80
2022/04/03 00:17:43;;;;;;;2.35;1.27;;;-0.30;99.90;;;;;;5014407;28;20057;-80
2022/04/03 00:20:11;;;;;;;2.25;1.20;;;1.30;99.90;;;;;;5014621;28;20065;-78
2022/04/03 00:22:36;;;;;;;1.50;1.10;;;0.00;99.90;;;;;;4997395;28;20536;-80
2022/04/03 00:25:03;;;;;;;3.90;1.20;;;-0.30;99.90;;;;;;5014138;28;20045;-74
2022/04/03 00:27:29;;;;;;;3.80;1.35;;;0.00;99.90;;;;;;5014105;28;20052;-75
2022/04/03 00:29:55;;;;;;;2.33;1.35;;;-0.10;99.90;;;;;;4997184;28;20132;-76
2022/04/03 00:32:21;;;;;;;2.85;1.75;;;-0.50;99.90;;;;;;5014431;28;20053;-75
2022/04/03 00:34:47;;;;;;;3.35;1.58;;;1.50;99.90;;;;;;5013503;28;20386;-74
2022/04/03 00:37:13;;;;;;;1.52;1.10;;;-0.40;99.90;;;;;;5013887;28;20128;-75
2022/04/03 00:39:39;;;;;;;2.58;1.27;;;0.60;99.90;;;;;;5012794;28;20511;-75
2022/04/03 00:42:09;;;;;;;4.40;1.52;;;-0.10;99.90;;;;;;5013027;28;20046;-75
2022/04/03 00:44:37;;;;;;;3.50;1.50;;;-0.20;99.90;;;;;;5014011;28;20052;-75
2022/04/03 00:47:03;;;;;;;2.60;1.65;;;0.00;99.90;;;;;;5014014;28;20046;-75
2022/04/03 00:49:29;;;;;;;5.05;1.60;;;0.10;99.90;;;;;;5013984;28;20129;-75
2022/04/03 00:51:55;;;;;;;2.28;1.48;;;1.10;99.90;;;;;;5013968;28;20128;-76
2022/04/03 00:54:20;;;;;;;2.67;1.45;;;-0.20;99.90;;;;;;5013957;28;20060;-76
2022/04/03 00:56:46;;;;;;;3.15;1.60;;;0.20;99.90;;;;;;5013568;28;20045;-75
2022/04/03 00:59:13;;;;;;;2.17;1.30;;;0.10;99.90;;;;;;5013506;28;20111;-74
2022/04/03 01:01:43;;;;;;;2.85;1.42;;;0.20;99.90;;;;;;5013822;28;20116;-75
2022/04/03 01:04:09;;;;;;;3.35;1.60;;;1.30;99.90;;;;;;5013847;28;20045;-75
2022/04/03 01:06:36;;;;;;;3.30;1.60;;;0.20;99.90;;;;;;5012879;28;20137;-75
2022/04/03 01:09:03;;;;;;;3.53;2.00;;;0.90;99.90;;;;;;5013728;28;20038;-75
2022/04/03 01:11:29;;;;;;;4.70;1.80;;;0.20;99.90;;;;;;5012734;28;20058;-75
2022/04/03 01:13:55;;;;;;;3.97;1.67;;;-0.20;99.90;;;;;;5013543;28;20096;-75
2022/04/03 01:16:20;;;;;;;3.28;1.55;;;2.30;99.90;;;;;;5013644;28;20077;-75
2022/04/03 01:18:47;;;;;;;2.85;1.50;;;-0.30;99.90;;;;;;5013259;28;20077;-75
2022/04/03 01:21:13;;;;;;;3.13;1.77;;;-0.20;99.90;;;;;;5012895;28;20061;-75
2022/04/03 01:23:40;;;;;;;6.13;2.03;;;0.10;99.90;;;;;;5013490;28;20111;-75
2022/04/03 01:26:06;;;;;;;3.78;1.75;;;0.10;99.90;;;;;;5013612;28;20088;-75
2022/04/03 01:28:32;;;;;;;3.53;1.98;;;1.50;99.90;;;;;;4996242;28;20434;-75
2022/04/03 01:30:57;;;;;;;2.58;1.60;;;0.40;99.90;;;;;;5013568;28;20137;-75
2022/04/03 01:33:23;;;;;;;3.92;2.22;;;0.30;99.90;;;;;;5012399;28;20100;-75
2022/04/03 01:35:49;;;;;;;2.83;1.50;;;0.00;99.90;;;;;;5013530;28;20129;-75
2022/04/03 01:38:15;;;;;;;3.17;1.60;;;0.90;99.90;;;;;;5012244;28;20049;-75
2022/04/03 01:40:42;;;;;;;5.90;1.60;;;0.60;99.90;;;;;;5012202;28;20042;-75
2022/04/03 01:43:10;;;;;;;4.07;1.92;;;2.20;99.90;;;;;;5013472;28;20056;-75
2022/04/03 01:45:40;;;;;;;4.07;2.08;;;0.20;99.90;;;;;;5013523;28;20046;-75
2022/04/03 01:48:07;;;;;;;3.80;1.95;;;0.00;99.90;;;;;;5013430;28;20405;-75
2022/04/03 01:50:33;;;;;;;4.03;1.60;;;0.00;99.90;;;;;;5016693;28;20046;-75
2022/04/03 01:52:59;;;;;;;2.88;1.60;;;-0.20;99.90;;;;;;5000210;28;20108;-74
2022/04/03 01:55:25;;;;;;;3.85;1.65;;;0.00;99.90;;;;;;5017101;28;20064;-75
2022/04/03 01:57:52;;;;;;;2.47;1.40;;;-0.10;99.90;;;;;;5015859;28;20440;-75
2022/04/03 02:00:19;;;;;;;4.70;1.70;;;1.30;99.90;;;;;;5015852;28;20081;-75
2022/04/03 02:02:45;;;;;;;4.97;1.50;;;-0.20;99.90;;;;;;5015719;28;20065;-75
2022/04/03 02:05:11;;;;;;;3.33;1.60;;;-0.10;99.90;;;;;;5016862;28;20046;-74
2022/04/03 02:07:38;;;;;;;1.60;1.38;;;0.40;99.90;;;;;;5015591;28;20060;-75
2022/04/03 02:10:09;;;;;;;2.72;1.58;;;0.00;99.90;;;;;;5016768;28;20060;-75
2022/04/03 02:12:41;;;;;;;4.80;1.70;;;0.00;99.90;;;;;;5016468;28;20563;-75
2022/04/03 02:15:08;;;;;;;2.78;1.35;;;0.00;99.90;;;;;;5015787;28;20050;-75
2022/04/03 02:17:34;;;;;;;3.08;1.75;;;0.00;99.90;;;;;;5015347;28;20056;-75
2022/04/03 02:20:00;;;;;;;2.83;1.63;;;1.50;99.90;;;;;;5015483;28;20478;-76
2022/04/03 02:22:26;;;;;;;3.85;1.35;;;-0.30;99.90;;;;;;5016817;28;20053;-75
2022/04/03 02:24:52;;;;;;;2.30;1.40;;;1.40;99.90;;;;;;5015820;28;20050;-75
2022/04/03 02:27:17;;;;;;;2.70;1.52;;;-0.10;99.90;;;;;;4983193;28;20093;-75
2022/04/03 02:29:43;;;;;;;3.72;1.42;;;0.30;99.90;;;;;;5016169;28;20041;-75
2022/04/03 02:32:09;;;;;;;1.95;1.30;;;0.50;99.90;;;;;;5015142;28;20129;-75
2022/04/03 02:34:34;;;;;;;7.72;1.50;;;0.90;99.90;;;;;;5016155;28;20065;-75
2022/04/03 02:37:00;;;;;;;3.05;1.52;;;-0.10;99.90;;;;;;5016320;28;20124;-75
2022/04/03 02:39:26;;;;;;;3.58;1.75;;;0.20;99.90;;;;;;5016141;28;20124;-75
2022/04/03 02:41:51;;;;;;;3.40;1.30;;;0.30;99.90;;;;;;5016702;28;20050;-75
2022/04/03 02:44:18;;;;;;;1.92;1.27;;;0.80;99.90;;;;;;5015105;28;20049;-75
2022/04/03 02:46:44;;;;;;;3.78;1.48;;;0.30;99.90;;;;;;5016280;28;20552;-74
2022/04/03 02:49:09;;;;;;;3.83;1.67;;;1.50;99.90;;;;;;5014849;28;20046;-75
2022/04/03 02:51:36;;;;;;;2.88;1.30;;;2.00;99.90;;;;;;5015665;28;20050;-75
2022/04/03 02:54:02;;;;;;;2.58;1.60;;;0.90;99.90;;;;;;5015897;28;20528;-75
2022/04/03 02:56:27;;;;;;;1.88;1.40;;;0.40;99.90;;;;;;5015914;28;20046;-75
2022/04/03 02:58:54;;;;;;;3.53;1.80;;;0.90;99.90;;;;;;5016188;28;20360;-75
2022/04/03 03:01:22;;;;;;;2.75;1.90;;;1.90;99.90;;;;;;5013643;28;20057;-75
2022/04/03 03:03:48;;;;;;;2.40;1.40;;;0.10;99.90;;;;;;4998144;28;20054;-76
2022/04/03 03:06:14;;;;;;;3.10;1.50;;;0.90;99.90;;;;;;5014454;28;20057;-76
2022/04/03 03:08:41;;;;;;;3.35;1.85;;;0.60;99.90;;;;;;5014664;28;20414;-76
2022/04/03 03:11:07;;;;;;;2.30;1.20;;;0.90;99.90;;;;;;5014453;28;20053;-75
2022/04/03 03:13:33;;;;;;;2.30;1.10;;;0.40;99.90;;;;;;5014586;28;20056;-75
2022/04/03 03:15:59;;;;;;;4.05;1.80;;;0.80;99.90;;;;;;5015534;28;20050;-76
2022/04/03 03:18:25;;;;;;;2.13;1.23;;;0.80;99.90;;;;;;5015411;28;20053;-75
2022/04/03 03:20:51;;;;;;;3.30;1.38;;;2.00;99.90;;;;;;5016248;28;20438;-75
2022/04/03 03:23:17;;;;;;;2.05;1.23;;;0.70;99.90;;;;;;5015428;28;20084;-75
2022/04/03 03:25:45;;;;;;;2.75;0.90;;;0.70;99.90;;;;;;5014676;28;20085;-75
2022/04/03 03:28:11;;;;;;;3.33;0.93;;;0.90;99.90;;;;;;5015031;28;20050;-76
2022/04/03 03:30:37;;;;;;;1.50;1.10;;;0.70;99.90;;;;;;5015255;28;20378;-75
2022/04/03 03:33:03;;;;;;;1.23;0.80;;;0.50;99.90;;;;;;5015271;28;20041;-76
2022/04/03 03:35:30;;;;;;;1.17;0.60;;;1.10;99.90;;;;;;5015136;28;20406;-76
2022/04/03 03:37:55;;;;;;;2.35;1.08;;;1.80;99.90;;;;;;4998006;28;20045;-75
2022/04/03 03:40:21;;;;;;;1.23;0.85;;;1.90;99.90;;;;;;5013908;28;20046;-76
2022/04/03 03:42:47;;;;;;;3.15;0.70;;;2.10;99.90;;;;;;5014726;28;20107;-75
2022/04/03 03:45:14;;;;;;;0.93;0.70;;;1.00;99.90;;;;;;5014201;28;20049;-76
2022/04/03 03:47:44;;;;;;;1.10;0.77;;;1.60;99.90;;;;;;5015126;28;20107;-75
2022/04/03 03:50:10;;;;;;;1.65;0.70;;;1.20;99.90;;;;;;5013816;28;20056;-76
2022/04/03 03:52:35;;;;;;;3.00;0.70;;;2.50;99.90;;;;;;5014939;28;20045;-76
2022/04/03 03:55:01;;;;;;;1.83;0.63;;;1.00;99.90;;;;;;5015465;28;20049;-75
2022/04/03 03:57:27;;;;;;;1.45;0.63;;;1.10;99.90;;;;;;4997381;28;20390;-75
2022/04/03 03:59:53;;;;;;;1.30;0.60;;;1.40;99.90;;;;;;5014686;28;20062;-75
2022/04/03 04:02:19;;;;;;;2.25;0.60;;;1.40;99.90;;;;;;5014807;28;20137;-76
2022/04/03 04:04:45;;;;;;;1.10;0.70;;;2.10;99.90;;;;;;5014609;28;20438;-75
2022/04/03 04:07:10;;;;;;;1.80;1.13;;;1.50;99.90;;;;;;5013551;28;20085;-76
2022/04/03 04:09:37;;;;;;;3.17;1.30;;;1.60;99.90;;;;;;5014686;28;20041;-75
2022/04/03 04:12:04;;;;;;;4.47;1.00;;;2.20;99.90;;;;;;5013171;28;20058;-77
2022/04/03 04:14:30;;;;;;;3.10;1.38;;;1.40;99.90;;;;;;5014619;28;20065;-77
2022/04/03 04:16:55;;;;;;;4.32;1.40;;;1.30;99.90;;;;;;5013360;28;20049;-76
2022/04/03 04:19:21;;;;;;;3.63;1.30;;;2.50;99.90;;;;;;5014480;28;20052;-77
2022/04/03 04:21:47;;;;;;;2.30;1.17;;;1.90;99.90;;;;;;5015331;28;20041;-76
2022/04/03 04:24:12;;;;;;;2.55;1.00;;;1.40;99.90;;;;;;5013918;28;20462;-76
2022/04/03 04:26:39;;;;;;;2.60;1.17;;;1.90;99.90;;;;;;5013360;28;20237;-77
2022/04/03 04:29:05;;;;;;;2.40;0.98;;;1.30;99.90;;;;;;5014300;28;20049;-76
2022/04/03 04:31:31;;;;;;;4.55;1.10;;;1.00;99.90;;;;;;5014303;28;20041;-76
2022/04/03 04:33:56;;;;;;;2.33;1.02;;;1.30;99.90;;;;;;5014320;28;20056;-76
2022/04/03 04:36:22;;;;;;;2.13;1.42;;;1.40;99.90;;;;;;5014330;28;20038;-78
2022/04/03 04:38:48;;;;;;;0.95;0.80;;;1.40;99.90;;;;;;5014137;28;20050;-75
2022/04/03 04:41:13;;;;;;;1.65;0.90;;;2.40;99.90;;;;;;5014232;28;20041;-74
2022/04/03 04:43:40;;;;;;;2.58;1.10;;;1.40;99.90;;;;;;5013526;28;20129;-73
2022/04/03 04:46:06;;;;;;;1.00;0.80;;;1.00;99.90;;;;;;5012976;28;20153;-73
2022/04/03 04:48:32;;;;;;;2.28;0.90;;;2.00;99.90;;;;;;5012906;28;20482;-73
2022/04/03 04:50:58;;;;;;;2.05;0.82;;;1.40;99.90;;;;;;5014051;28;20046;-73
2022/04/03 04:53:23;;;;;;;1.83;0.88;;;1.30;99.90;;;;;;5014322;28;20084;-73
2022/04/03 04:55:49;;;;;;;3.33;0.90;;;2.30;99.90;;;;;;5014033;28;20394;-73
2022/04/03 04:58:15;;;;;;;1.80;0.85;;;2.00;99.90;;;;;;5013831;28;20050;-73
2022/04/03 05:00:41;;;;;;;4.68;1.00;;;2.10;99.90;;;;;;5014078;28;20065;-73
2022/04/03 05:03:07;;;;;;;2.78;1.00;;;1.70;99.90;;;;;;5014709;28;20054;-73
2022/04/03 05:05:35;;;;;;;2.10;0.90;;;2.40;99.90;;;;;;5013962;28;20104;-73
2022/04/03 05:08:01;;;;;;;3.55;0.70;;;1.60;99.90;;;;;;4996776;28;20042;-73
2022/04/03 05:10:28;;;;;;;2.17;0.70;;;1.60;99.90;;;;;;5013874;28;20057;-73
2022/04/03 05:12:55;;;;;;;2.05;0.90;;;1.30;99.90;;;;;;5012867;28;20057;-73
2022/04/03 05:15:21;;;;;;;1.23;0.77;;;1.30;99.90;;;;;;5013848;28;20042;-73
2022/04/03 05:17:47;;;;;;;2.75;0.80;;;1.30;99.90;;;;;;5012752;28;20042;-73
2022/04/03 05:20:14;;;;;;;1.25;0.70;;;1.10;99.90;;;;;;5013769;28;20081;-73
2022/04/03 05:22:41;;;;;;;2.40;0.70;;;1.20;99.90;;;;;;5014154;28;20095;-74
2022/04/03 05:25:11;;;;;;;0.95;0.70;;;1.90;99.90;;;;;;5017760;28;20402;-73
2022/04/03 05:27:37;;;;;;;0.70;0.60;;;1.30;99.90;;;;;;5017723;28;20371;-73
2022/04/03 05:30:04;;;;;;;2.70;0.80;;;1.30;99.90;;;;;;5017656;28;20046;-73
2022/04/03 05:32:31;;;;;;;1.23;0.82;;;1.30;99.90;;;;;;5016467;28;20053;-73
2022/04/03 05:34:58;;;;;;;3.05;1.00;;;2.10;99.90;;;;;;5017566;28;20050;-73
2022/04/03 05:37:24;;;;;;;1.92;0.80;;;1.30;99.90;;;;;;5017576;28;20374;-73
2022/04/03 05:39:53;;;;;;;1.92;0.80;;;1.00;99.90;;;;;;5017407;28;20038;-73
2022/04/03 05:42:20;;;;;;;1.77;0.85;;;1.40;99.90;;;;;;5018052;28;20050;-73
2022/04/03 05:44:47;;;;;;;3.40;1.30;;;1.40;99.90;;;;;;5017370;28;20107;-73
2022/04/03 05:47:13;;;;;;;1.83;0.90;;;1.90;99.90;;;;;;5017396;28;20469;-73
2022/04/03 05:49:39;;;;;;;1.08;0.95;;;1.70;99.90;;;;;;5017272;28;20132;-73
2022/04/03 05:52:05;;;;;;;1.70;1.10;;;2.20;99.90;;;;;;5016312;28;20125;-73
2022/04/03 05:54:31;;;;;;;3.05;1.38;;;1.50;99.90;;;;;;5017213;28;20120;-73
2022/04/03 05:56:56;;;;;;;1.92;1.15;;;1.80;99.90;;;;;;5017194;28;20042;-73
2022/04/03 05:59:22;;;;;;;1.98;1.15;;;1.50;99.90;;;;;;5016126;28;20631;-73
2022/04/03 06:01:48;;;;;;;2.83;1.20;;;1.40;99.90;;;;;;5017140;28;20136;-73
2022/04/03 06:04:15;;;;;;;1.35;1.17;;;2.10;99.90;;;;;;5016103;28;20107;-73
2022/04/03 06:06:41;;;;;;;2.20;1.00;;;2.50;99.90;;;;;;5017482;28;20045;-73
2022/04/03 06:09:06;;;;;;;1.67;1.00;;;1.40;99.90;;;;;;5017005;28;20161;-73
2022/04/03 06:11:32;;;;;;;3.08;1.17;;;2.60;99.90;;;;;;5016884;28;20061;-73
2022/04/03 06:13:58;;;;;;;1.88;1.10;;;1.50;99.90;;;;;;5016536;28;20050;-73
2022/04/03 06:16:24;;;;;;;2.40;1.13;;;2.00;99.90;;;;;;5016824;28;20103;-73
2022/04/03 06:18:52;;;;;;;1.73;1.05;;;1.60;99.90;;;;;;5015580;28;20428;-73
2022/04/03 06:21:18;;;;;;;4.10;1.30;;;1.50;99.90;;;;;;5015547;28;20045;-73
2022/04/03 06:23:44;;;;;;;2.70;1.10;;;1.50;99.90;;;;;;4998901;28;20046;-73
2022/04/03 06:26:09;;;;;;;1.55;1.00;;;1.50;99.90;;;;;;5016626;28;20048;-73
2022/04/03 06:28:35;;;;;;;1.80;1.20;;;1.50;99.90;;;;;;5016481;28;20141;-73
2022/04/03 06:31:01;;;;;;;2.55;1.58;;;1.50;99.90;;;;;;4999219;28;20053;-73
2022/04/03 06:33:27;;;;;;;2.35;1.15;;;2.50;99.90;;;;;;5016500;28;20045;-73
2022/04/03 06:35:53;;;;;;;2.30;0.93;;;1.00;99.90;;;;;;5014383;28;20057;-73
2022/04/03 06:38:19;;;;;;;2.20;1.10;;;1.00;99.90;;;;;;5015275;28;20042;-73
2022/04/03 06:40:50;;;;;;;2.33;1.02;;;1.40;99.90;;;;;;5016354;28;20096;-73
2022/04/03 06:43:21;;;;;;;2.80;1.20;;;1.20;99.90;;;;;;5016253;28;20104;-73
2022/04/03 06:45:48;;;;;;;2.67;1.10;;;1.50;99.90;;;;;;5016443;28;20046;-73
2022/04/03 06:48:14;;;;;;;1.80;1.20;;;1.50;99.90;;;;;;5016073;28;20085;-73
2022/04/03 06:50:40;;;;;;;2.15;1.10;;;1.50;99.90;;;;;;5015088;28;20112;-73
2022/04/03 06:53:06;;;;;;;2.38;1.00;;;1.50;99.90;;;;;;5015141;28;20057;-74
2022/04/03 06:55:32;;;;;;;3.28;1.30;;;1.30;99.90;;;;;;5014944;28;20038;-73
2022/04/03 06:57:57;;;;;;;2.88;1.42;;;1.60;99.90;;;;;;5014870;28;20046;-72
2022/04/03 07:00:23;;;;;;;2.75;1.35;;;1.70;99.90;;;;;;5014800;28;20050;-73
2022/04/03 07:02:49;;;;;;;2.22;1.38;;;1.80;99.90;;;;;;5016437;28;20389;-73
2022/04/03 07:05:15;;;;;;;3.17;1.55;;;1.90;99.90;;;;;;5015220;28;20390;-75
2022/04/03 07:07:41;;;;;;;2.22;1.20;;;1.90;99.90;;;;;;5016690;28;20054;-74
2022/04/03 07:10:09;;;;;;;2.78;1.10;;;3.60;99.90;;;;;;5015829;28;20540;-77
2022/04/03 07:12:35;;;;;;;6.28;0.90;;;2.00;99.90;;;;;;5014802;28;20111;-78
2022/04/03 07:15:03;;;;;;;2.63;1.17;;;2.30;99.90;;;;;;5014665;28;20054;-79
2022/04/03 07:17:29;;;;;;;2.03;0.90;;;2.80;99.90;;;;;;5015737;28;20101;-78
2022/04/03 07:19:54;;;;;;;0.90;0.80;;;2.90;99.90;;;;;;4998323;28;20077;-79
2022/04/03 07:22:20;;;;;;;3.45;1.10;;;2.50;99.90;;;;;;5015570;28;20129;-74
2022/04/03 07:24:46;;;;;;;2.72;0.80;;;4.20;99.90;;;;;;5014375;28;20132;-74
2022/04/03 07:27:12;;;;;;;3.10;1.02;;;2.90;99.90;;;;;;5015432;28;20046;-78
2022/04/03 07:29:37;;;;;;;3.97;0.75;;;3.50;99.90;;;;;;5015362;28;20053;-76
2022/04/03 07:32:04;;;;;;;3.55;0.85;;;3.10;99.90;;;;;;5014671;28;20042;-78
2022/04/03 07:34:30;;;;;;;2.90;0.80;;;3.20;99.90;;;;;;5015293;28;20056;-77
2022/04/03 07:36:56;;;;;;;1.80;0.90;;;3.30;99.90;;;;;;5015347;28;20128;-75
2022/04/03 07:39:23;;;;;;;1.27;0.70;;;3.60;99.90;;;;;;5015229;28;20108;-75
2022/04/03 07:41:50;;;;;;;2.72;0.90;;;3.40;99.90;;;;;;5015166;28;20050;-76
2022/04/03 07:44:16;;;;;;;2.78;1.00;;;3.50;99.90;;;;;;5015012;28;20385;-80
2022/04/03 07:46:41;;;;;;;1.55;0.57;;;3.50;99.90;;;;;;5015044;28;20053;-79
2022/04/03 07:49:07;;;;;;;1.83;0.60;;;3.70;99.90;;;;;;5015073;28;20082;-79
2022/04/03 07:51:34;;;;;;;2.60;0.60;;;4.30;99.90;;;;;;5015780;28;20096;-79
2022/04/03 07:53:59;;;;;;;1.35;0.57;;;3.80;99.90;;;;;;5014950;28;20050;-80
2022/04/03 07:56:26;;;;;;;2.65;0.60;;;3.80;99.90;;;;;;5014296;28;20117;-79
2022/04/03 07:58:51;;;;;;;1.05;0.55;;;4.40;99.90;;;;;;5014158;28;20564;-81
2022/04/03 08:01:17;;;;;;;1.17;0.52;;;4.20;99.90;;;;;;4996839;28;20093;-83
2022/04/03 08:03:43;;;;;;;2.60;0.75;;;4.00;99.90;;;;;;5013903;28;20478;-81
2022/04/03 08:06:09;;;;;;;3.17;0.90;;;4.10;99.90;;;;;;5013302;28;20143;-80
2022/04/03 08:08:35;;;;;;;1.50;0.73;;;4.10;99.90;;;;;;5014828;28;20046;-79
2022/04/03 08:11:01;;;;;;;1.48;0.65;;;4.10;99.90;;;;;;5014952;28;20404;-78
2022/04/03 08:13:26;;;;;;;2.47;0.60;;;4.20;99.90;;;;;;5014586;28;20489;-82
2022/04/03 08:15:52;;;;;;;1.92;0.73;;;4.20;99.90;;;;;;5014672;28;20057;-81
2022/04/03 08:18:19;;;;;;;2.15;0.70;;;4.20;99.90;;;;;;5013843;28;20046;-78
2022/04/03 08:20:45;;;;;;;2.45;0.60;;;4.20;99.90;;;;;;5014472;28;20096;-79
2022/04/03 08:23:11;;;;;;;1.55;0.60;;;4.20;99.90;;;;;;5013546;28;20051;-80
2022/04/03 08:25:39;;;;;;;2.25;0.60;;;4.80;99.90;;;;;;5014071;28;20529;-80
2022/04/03 08:28:07;;;;;;;2.05;0.60;;;4.50;99.90;;;;;;5013394;28;20076;-81
2022/04/03 08:30:35;;;;;;;1.13;0.70;;;4.50;99.90;;;;;;5013311;28;20089;-81
2022/04/03 08:33:04;;;;;;;1.63;0.50;;;4.60;99.90;;;;;;5014777;28;20145;-82
2022/04/03 08:35:31;;;;;;;2.10;0.60;;;4.60;99.90;;;;;;5014547;28;20137;-81
2022/04/03 08:37:58;;;;;;;1.52;0.45;;;5.00;99.90;;;;;;5013221;28;20531;-76
2022/04/03 08:40:25;;;;;;;2.55;0.50;;;4.80;99.90;;;;;;5014241;28;20112;-80
2022/04/03 08:42:53;;;;;;;1.33;0.40;;;4.90;99.90;;;;;;4996646;28;20053;-82
2022/04/03 08:45:19;;;;;;;1.45;0.40;;;5.20;99.90;;;;;;5012921;28;20050;-80
2022/04/03 08:47:47;;;;;;;3.45;1.17;;;5.10;99.90;;;;;;4996805;28;20502;-80
2022/04/03 08:50:15;;;;;;;1.17;0.30;;;5.30;99.90;;;;;;5013645;28;20054;-80
2022/04/03 08:52:50;;;;;;;1.70;0.40;;;5.50;99.90;;;;;;5013552;28;20370;-76
2022/04/03 08:55:17;;;;;;;1.77;0.70;;;5.50;99.90;;;;;;5013509;28;20565;-82
2022/04/03 08:57:43;;;;;;;2.05;0.50;;;5.70;99.90;;;;;;5013067;28;20484;-84
2022/04/03 09:00:11;;;;;;;2.85;0.40;;;5.80;99.90;;;;;;5012157;28;20050;-83
2022/04/03 09:02:37;;;;;;;1.75;0.30;;;5.90;99.90;;;;;;5013103;28;20089;-83
2022/04/03 09:05:05;;;;;;;2.72;0.40;;;5.90;99.90;;;;;;5013486;28;20077;-78
2022/04/03 09:07:31;;;;;;;0.60;0.40;;;5.90;99.90;;;;;;5013346;28;20049;-81
2022/04/03 09:10:13;;;;;;;2.25;0.52;;;5.80;99.90;;;;;;5013073;28;20050;-87
2022/04/03 09:12:50;;;;;;;0.50;0.30;;;5.90;99.90;;;;;;5013575;28;20478;-78
2022/04/03 09:15:21;;;;;;;2.08;0.50;;;5.90;99.90;;;;;;5013572;28;20042;-83
2022/04/03 09:17:58;;;;;;;4.55;1.00;;;5.90;99.90;;;;;;5013053;28;20532;-77
2022/04/03 09:20:26;;;;;;;1.85;0.40;;;6.20;99.90;;;;;;5013696;28;20046;-88
2022/04/03 09:22:54;;;;;;;2.65;0.60;;;6.20;99.90;;;;;;5013048;28;20466;-76
2022/04/03 09:25:30;;;;;;;2.00;0.40;;;6.20;99.90;;;;;;5013283;28;20497;-87
2022/04/03 09:27:58;;;;;;;1.88;0.40;;;6.20;99.90;;;;;;5013271;28;20034;-86
2022/04/03 09:30:38;;;;;;;0.98;0.30;;;5.70;99.90;;;;;;5015250;28;20123;-89
2022/04/03 09:33:07;;;;;;;2.58;0.40;;;5.60;99.90;;;;;;5014015;28;20061;-85
2022/04/03 09:35:53;;;;;;;2.78;0.40;;;5.70;99.90;;;;;;5012493;28;20073;-86
2022/04/03 09:38:19;;;;;;;1.15;0.38;;;5.50;99.90;;;;;;5014465;28;20072;-87
2022/04/03 09:40:50;;;;;;;4.22;0.90;;;5.50;99.90;;;;;;5014113;28;20093;-83
2022/04/03 09:43:23;;;;;;;1.65;0.40;;;6.50;99.90;;;;;;5013310;28;20050;-88
2022/04/03 09:45:49;;;;;;;1.63;0.35;;;5.80;99.90;;;;;;5014720;28;20092;-91
2022/04/03 09:48:34;;;;;;;0.90;0.40;;;6.00;99.90;;;;;;5014181;28;20465;-85
2022/04/03 09:51:02;;;;;;;0.55;0.30;;;6.10;99.90;;;;;;5014354;28;20054;-82
2022/04/03 09:53:45;;;;;;;2.92;0.30;;;6.10;99.90;;;;;;5015299;28;20497;-83
2022/04/03 09:56:13;;;;;;;1.52;0.20;;;6.10;99.90;;;;;;5015696;28;20077;-81
2022/04/03 09:58:51;;;;;;;0.50;0.20;;;6.10;99.90;;;;;;5014291;28;20049;-85
2022/04/03 10:01:40;;;;;;;2.40;0.30;;;6.10;99.90;;;;;;5014006;28;20051;-91
2022/04/03 10:04:13;;;;;;;1.25;0.20;;;6.50;99.90;;;;;;5015510;28;20089;-85
2022/04/03 10:06:39;;;;;;;;;;;6.60;99.90;;;;;;5014395;28;20057;-80
2022/04/03 10:09:07;;;;;;;2.42;0.30;;;6.50;99.90;;;;;;5012575;28;19922;-84
2022/04/03 10:11:33;;;;;;;0.85;0.25;;;6.70;99.90;;;;;;5016844;28;20472;-82
2022/04/03 10:14:00;;;;;;;2.08;0.20;;;6.80;99.90;;;;;;4999610;28;20057;-86
2022/04/03 10:16:26;;;;;;;0.38;0.20;;;6.90;99.90;;;;;;5017347;28;20374;-83
2022/04/03 10:18:52;;;;;;;1.55;0.20;;;7.00;99.90;;;;;;5015999;28;20176;-82
2022/04/03 10:21:39;;;;;;;1.63;0.30;;;7.10;99.90;;;;;;5016791;28;20470;-85
2022/04/03 10:24:08;;;;;;;0.73;0.20;;;7.20;99.90;;;;;;5016089;28;20053;-86
2022/04/03 10:26:37;;;;;;;1.20;0.47;;;7.30;99.90;;;;;;5018306;28;20049;-85
2022/04/03 10:29:07;;;;;;;2.08;0.40;;;7.40;99.90;;;;;;5017720;28;20079;-80
2022/04/03 10:31:33;;;;;;;0.50;0.30;;;7.40;99.90;;;;;;5015804;28;20057;-88
2022/04/03 10:33:58;;;;;;;1.40;0.20;;;7.40;99.90;;;;;;5015422;28;20052;-84
2022/04/03 10:36:27;;;;;;;1.00;0.30;;;7.40;99.90;;;;;;5015748;28;20453;-83
2022/04/03 10:39:08;;;;;;;0.93;0.30;;;7.30;99.90;;;;;;5016931;28;20056;-84
2022/04/03 10:41:36;;;;;;;0.52;0.20;;;7.40;99.90;;;;;;5016487;28;20096;-83
2022/04/03 10:44:18;;;;;;;0.60;0.30;;;7.40;99.90;;;;;;5016538;28;20052;-80
2022/04/03 10:47:02;;;;;;;2.25;0.30;;;7.40;99.90;;;;;;5015819;28;20072;-84
2022/04/03 10:49:37;;;;;;;0.75;0.30;;;7.30;99.90;;;;;;5016322;28;20570;-83
2022/04/03 10:52:24;;;;;;;1.60;0.20;;;7.20;99.90;;;;;;5016532;28;20045;-77
2022/04/03 10:54:52;;;;;;;0.98;0.30;;;7.50;99.90;;;;;;5016442;28;20046;-80
2022/04/03 10:57:43;;;;;;;1.05;0.30;;;7.30;99.90;;;;;;5016208;28;20060;-86
2022/04/03 11:00:12;;;;;;;1.95;0.40;;;7.20;99.90;;;;;;5014848;28;20050;-79
2022/04/03 11:02:42;;;;;;;1.00;0.40;;;7.20;99.90;;;;;;5016702;28;20065;-84
2022/04/03 11:05:26;;;;;;;1.75;0.40;;;7.20;99.90;;;;;;5016060;28;20093;-88
2022/04/03 11:08:01;;;;;;;1.35;0.40;;;7.30;99.90;;;;;;5000395;28;20049;-81
2022/04/03 11:10:58;;;;;;;2.85;0.80;;;7.40;99.90;;;;;;5018706;28;20042;-88
2022/04/03 11:13:38;;;;;;;1.50;0.30;;;7.40;99.90;;;;;;5020022;28;20042;-84
2022/04/03 11:16:09;;;;;;;0.60;0.30;;;7.40;99.90;;;;;;5016911;28;20139;-77
2022/04/03 11:18:47;;;;;;;0.60;0.30;;;7.40;99.90;;;;;;5015268;28;20513;-75
2022/04/03 11:21:37;;;;;;;2.28;0.50;;;7.50;99.90;;;;;;5015603;28;20097;-76
2022/04/03 11:24:06;;;;;;;0.95;0.40;;;7.60;99.90;;;;;;5016423;28;20050;-77
2022/04/03 11:26:32;;;;;;;2.05;0.40;;;7.70;99.90;;;;;;5015777;28;20390;-76
2022/04/03 11:28:58;;;;;;;1.73;0.80;;;7.90;99.90;;;;;;5015040;28;20523;-77
2022/04/03 11:31:25;;;;;;;1.52;0.55;;;7.80;99.90;;;;;;5014792;28;20081;-77
2022/04/03 11:33:51;;;;;;;2.05;0.50;;;7.70;99.90;;;;;;5015424;28;20050;-77
2022/04/03 11:36:28;;;;;;;3.10;0.60;;;7.60;99.90;;;;;;5015972;28;20049;-79
2022/04/03 11:38:55;;;;;;;1.40;0.50;;;7.50;99.90;;;;;;5014602;28;20049;-79
2022/04/03 11:41:31;;;;;;;2.78;0.52;;;7.60;99.90;;;;;;5015476;28;20128;-82
2022/04/03 11:44:05;;;;;;;1.35;0.25;;;7.60;99.90;;;;;;5014363;28;20508;-81
2022/04/03 11:46:36;;;;;;;1.50;0.60;;;7.60;99.90;;;;;;5014691;28;20498;-80
2022/04/03 11:49:18;;;;;;;2.10;0.35;;;7.70;99.90;;;;;;5014827;28;20042;-81
2022/04/03 11:51:46;;;;;;;0.47;0.20;;;7.70;99.90;;;;;;5016066;28;20046;-75
2022/04/03 11:54:14;;;;;;;0.85;0.30;;;7.70;99.80;;;;;;5014020;28;20050;-79
2022/04/03 11:56:40;;;;;;;0.22;0.10;;;7.60;99.90;;;;;;4997866;28;20050;-76
2022/04/03 11:59:09;;;;;;;0.20;0.15;;;7.50;98.80;;;;;;5014794;28;20046;-80
2022/04/03 12:01:41;;;;;;;0.50;0.20;;;7.40;99.00;;;;;;5015143;28;20064;-76
2022/04/03 12:04:15;;;;;;;1.23;0.13;;;7.40;98.70;;;;;;5014878;28;20052;-83
2022/04/03 12:06:48;;;;;;;0.47;0.20;;;7.30;97.50;;;;;;5015573;28;20096;-77
2022/04/03 12:09:16;;;;;;;0.20;0.10;;;7.30;97.10;;;;;;5013752;28;20034;-81
2022/04/03 12:11:48;;;;;;;0.90;0.20;;;7.30;97.50;;;;;;5014176;28;20050;-80
2022/04/03 12:14:28;;;;;;;0.20;0.17;;;7.40;98.10;;;;;;5014138;28;20096;-79
2022/04/03 12:17:00;;;;;;;0.75;0.20;;;7.40;96.60;;;;;;5013853;28;20108;-81
2022/04/03 12:19:27;;;;;;;0.47;0.22;;;7.50;97.60;;;;;;5015604;28;20046;-84
2022/04/03 12:21:56;;;;;;;1.60;0.30;;;7.60;98.00;;;;;;5014101;28;20103;-81
2022/04/03 12:24:29;;;;;;;1.00;0.30;;;7.50;97.50;;;;;;5014606;28;20060;-81
2022/04/03 12:27:00;;;;;;;0.30;0.10;;;7.60;97.60;;;;;;5013981;28;20048;-78
2022/04/03 12:29:27;;;;;;;0.10;0.05;;;7.60;96.70;;;;;;5014557;28;20046;-83
2022/04/03 12:32:04;;;;;;;0.65;0.20;;;7.60;94.80;;;;;;5014204;28;20045;-79
2022/04/03 12:34:40;;;;;;;0.57;0.20;;;7.70;94.30;;;;;;5014352;28;20509;-76
2022/04/03 12:37:07;;;;;;;0.40;0.15;;;7.70;92.80;;;;;;5014665;28;20045;-76
2022/04/03 12:39:40;;;;;;;0.30;0.20;;;7.90;93.10;;;;;;5014058;28;20390;-82
2022/04/03 12:42:25;;;;;;;0.22;0.10;;;8.00;90.90;;;;;;4997245;28;20466;-82
2022/04/03 12:45:11;;;;;;;0.40;0.10;;;8.00;88.20;;;;;;5013964;28;20046;-81
2022/04/03 12:47:46;;;;;;;0.85;0.30;;;8.10;90.10;;;;;;5013891;28;20050;-80
2022/04/03 12:50:40;;;;;;;0.13;0.10;;;8.10;89.70;;;;;;5016378;28;20064;-78
2022/04/03 12:53:12;;;;;;;0.10;0.10;;;8.20;88.10;;;;;;4997077;28;20536;-77
2022/04/03 12:55:48;;;;;;;0.73;0.30;;;8.30;90.00;;;;;;5014101;28;20061;-83
2022/04/03 12:58:26;;;;;;;0.70;0.50;;;8.40;90.70;;;;;;5014437;28;20143;-81
2022/04/03 13:00:56;;;;;;;1.42;0.30;;;8.30;92.20;;;;;;4996869;28;20062;-78
2022/04/03 13:03:44;;;;;;;0.85;0.30;;;8.20;93.30;;;;;;5014765;28;20478;-82